Terminal Aerodrome Forecast
Issued by NWS Twin Cities, MN

Home | Current Version | Previous Version | Text Only | Print | Product List | Glossary Off
Versions: 1 2 3 4 5 6 7 8 9 10 11 12 13 14 15 16 17 18 19 20 21 22 23 24 25 26 27

000
FTUS43 KMPX 231700
TAFMSP
TAF
KMSP 231739Z 2318/2424 24005KT P6SM SKC
     FM232000 24008KT P6SM SKC
     FM240900 18004KT P6SM SKC
     FM241600 17007KT P6SM SKC=

USA.gov is the U.S. government's official web portal to all federal, state and local government web resources and services.